Time;durP1;ratioP1;P1;durP2;ratioP2;P2;SDS_P1;SDS_P2;PMS_P1;PMS_P2;Temp;Humidity;BMP_temperature;BMP_pressure;BME280_temperature;BME280_humidity;BME280_pressure;Samples;Min_cycle;Max_cycle;Signal;HPM_P1;HPM_P2
2024/04/09 00:00:20;;;;;;;5.82;3.10;;;;;;;7.67;77.84;99197.22;5568747;25;20032;-80
2024/04/09 00:02:45;;;;;;;12.02;6.28;;;;;;;7.75;77.11;99213.28;5603231;25;20419;-81
2024/04/09 00:05:11;;;;;;;13.07;5.50;;;;;;;7.71;76.90;99201.53;5556814;25;20003;-83
2024/04/09 00:07:38;;;;;;;9.13;4.57;;;;;;;7.68;77.10;99187.78;5556839;25;20000;-84
2024/04/09 00:10:06;;;;;;;4.20;2.75;;;;;;;7.87;76.56;99184.47;5569518;25;19996;-82
2024/04/09 00:12:43;;;;;;;3.15;2.13;;;;;;;7.98;76.74;99192.63;5569679;25;19996;-82
2024/04/09 00:15:09;;;;;;;2.77;1.50;;;;;;;7.96;76.23;99184.00;5526047;25;20435;-80
2024/04/09 00:18:09;;;;;;;3.45;1.63;;;;;;;8.13;75.62;99205.09;5544591;25;19996;-81
2024/04/09 00:20:35;;;;;;;5.15;2.08;;;;;;;7.80;75.95;99151.53;5578808;25;20007;-82
2024/04/09 00:23:00;;;;;;;3.45;1.75;;;;;;;8.00;75.67;99177.28;5576919;25;19996;-81
2024/04/09 00:25:26;;;;;;;4.53;2.67;;;;;;;7.84;75.50;99134.97;5569098;25;19999;-82
2024/04/09 00:27:53;;;;;;;2.45;1.83;;;;;;;7.48;75.21;99094.06;5564975;25;20016;-82
2024/04/09 00:30:22;;;;;;;3.58;1.50;;;;;;;8.03;75.09;99168.22;5556092;25;20007;-81
2024/04/09 00:32:54;;;;;;;3.97;1.92;;;;;;;8.16;75.32;99180.28;5520978;25;19996;-81
2024/04/09 00:35:23;;;;;;;3.65;1.83;;;;;;;7.98;74.46;99154.13;5601837;25;19996;-79
2024/04/09 00:37:54;;;;;;;4.28;1.70;;;;;;;7.86;74.28;99138.13;5587355;25;20008;-83
2024/04/09 00:40:21;;;;;;;3.08;1.80;;;;;;;8.17;74.93;99181.06;5559549;25;20460;-80
2024/04/09 00:42:52;;;;;;;3.58;2.17;;;;;;;8.23;73.87;99192.41;5603100;25;20000;-80
2024/04/09 00:45:18;;;;;;;22.30;7.35;;;;;;;7.98;74.46;99143.09;5600178;25;20456;-82
2024/04/09 00:47:47;;;;;;;10.25;4.55;;;;;;;8.21;74.63;99181.00;5602035;25;19996;-80
2024/04/09 00:50:13;;;;;;;2.50;1.58;;;;;;;8.08;74.57;99165.00;5596226;25;20008;-83
2024/04/09 00:52:44;;;;;;;2.25;1.33;;;;;;;8.14;74.75;99177.13;5531281;25;20013;-80
2024/04/09 00:55:15;;;;;;;2.83;1.60;;;;;;;8.07;74.21;99171.72;5538732;25;20008;-81
2024/04/09 00:57:47;;;;;;;2.65;1.73;;;;;;;8.01;75.34;99159.59;5602961;25;20075;-80
2024/04/09 01:00:14;;;;;;;5.68;1.55;;;;;;;7.76;75.32;99110.31;5565325;25;20512;-81
2024/04/09 01:02:41;;;;;;;2.33;1.60;;;;;;;7.88;74.78;99124.75;5530465;25;20465;-81
2024/04/09 01:05:07;;;;;;;2.88;1.50;;;;;;;8.01;73.97;99151.34;5600739;25;20448;-82
2024/04/09 01:07:33;;;;;;;3.53;1.30;;;;;;;7.98;73.90;99143.88;5568649;25;20011;-81
2024/04/09 01:09:59;;;;;;;4.97;1.70;;;;;;;8.22;73.09;99168.81;5567698;25;19996;-81
2024/04/09 01:12:24;;;;;;;3.05;1.48;;;;;;;8.29;72.09;99149.47;5545802;25;20448;-83
2024/04/09 01:14:50;;;;;;;2.55;1.75;;;;;;;8.25;72.10;99166.03;5565888;25;19996;-81
2024/04/09 01:17:16;;;;;;;4.50;1.40;;;;;;;8.15;71.98;99122.88;5567974;25;20000;-84
2024/04/09 01:19:41;;;;;;;3.20;1.35;;;;;;;8.46;71.74;99174.09;5601818;25;19999;-81
2024/04/09 01:22:07;;;;;;;7.20;1.65;;;;;;;8.32;71.74;99162.47;5568930;25;19999;-80
2024/04/09 01:24:34;;;;;;;1.48;1.38;;;;;;;8.14;71.68;99127.59;5568099;25;19999;-80
2024/04/09 01:27:00;;;;;;;2.80;1.63;;;;;;;8.22;71.45;99144.81;5567834;25;20011;-83
2024/04/09 01:29:26;;;;;;;1.85;1.45;;;;;;;7.96;71.33;99112.47;5568125;25;20008;-81
2024/04/09 01:31:52;;;;;;;3.03;1.60;;;;;;;8.25;72.12;99170.75;5568592;25;20008;-81
2024/04/09 01:34:21;;;;;;;2.80;1.13;;;;;;;8.20;71.91;99155.44;5601574;25;20010;-81
2024/04/09 01:36:48;;;;;;;3.70;1.48;;;;;;;8.03;71.51;99129.69;5542192;25;20016;-84
2024/04/09 01:39:14;;;;;;;1.30;1.20;;;;;;;7.84;72.38;99107.47;5519287;25;20000;-82
2024/04/09 01:41:41;;;;;;;2.00;0.95;;;;;;;8.36;71.96;99180.50;5567171;25;20016;-84
2024/04/09 01:44:07;;;;;;;3.90;1.20;;;;;;;8.28;71.71;99161.66;5524736;26;19997;-80
2024/04/09 01:46:33;;;;;;;2.92;1.15;;;;;;;7.86;71.78;99094.88;5544648;25;20075;-82
2024/04/09 01:48:59;;;;;;;2.17;1.30;;;;;;;8.19;71.72;99151.16;5601883;25;20003;-82
2024/04/09 01:51:25;;;;;;;3.22;1.05;;;;;;;8.39;71.23;99184.38;5567733;25;20004;-81
2024/04/09 01:53:50;;;;;;;1.42;1.27;;;;;;;8.17;70.82;99157.06;5567589;25;20015;-80
2024/04/09 01:56:16;;;;;;;1.60;1.10;;;;;;;8.16;70.74;99158.25;5568190;25;20000;-81
2024/04/09 01:58:42;;;;;;;2.20;1.20;;;;;;;8.06;70.54;99137.13;5553846;25;20000;-84
2024/04/09 02:01:10;;;;;;;2.22;1.20;;;;;;;8.06;70.37;99115.13;5565259;25;20007;-80
2024/04/09 02:03:39;;;;;;;1.25;1.10;;;;;;;8.47;70.23;99175.66;5601221;25;20000;-81
2024/04/09 02:06:14;;;;;;;1.50;0.93;;;;;;;8.44;70.35;99183.94;5597063;25;20444;-84
2024/04/09 02:08:40;;;;;;;2.28;1.35;;;;;;;8.31;70.49;99177.41;5530478;25;20009;-81
2024/04/09 02:11:06;;;;;;;4.05;1.17;;;;;;;8.25;69.97;99160.53;5560199;25;20075;-81
2024/04/09 02:13:31;;;;;;;2.28;1.40;;;;;;;8.53;70.14;99192.50;5568010;25;20000;-84
2024/04/09 02:16:01;;;;;;;1.77;1.15;;;;;;;8.05;70.75;99132.81;5542362;25;20000;-81
2024/04/09 02:18:26;;;;;;;2.92;1.50;;;;;;;7.78;72.16;99164.91;5568117;25;20370;-80
2024/04/09 02:20:53;;;;;;;4.63;1.50;;;;;;;7.67;73.57;99169.72;5567286;25;20000;-80
2024/04/09 02:23:18;;;;;;;3.22;1.80;;;;;;;7.44;74.16;99173.03;5567315;25;19996;-80
2024/04/09 02:25:43;;;;;;;5.80;2.17;;;;;;;7.40;74.92;99182.50;5567090;25;20383;-81
2024/04/09 02:28:09;;;;;;;3.47;2.05;;;;;;;7.27;75.50;99173.94;5550803;25;19997;-83
2024/04/09 02:30:34;;;;;;;7.82;2.15;;;;;;;7.14;76.73;99162.63;5557666;25;20313;-81
2024/04/09 02:33:00;;;;;;;7.85;2.40;;;;;;;7.22;77.25;99179.88;5566839;25;20063;-81
2024/04/09 02:35:25;;;;;;;6.20;2.55;;;;;;;7.06;77.57;99165.81;5566885;25;20000;-83
2024/04/09 02:37:51;;;;;;;3.65;2.30;;;;;;;7.10;78.20;99163.84;5567039;25;20463;-81
2024/04/09 02:40:16;;;;;;;5.43;2.20;;;;;;;7.19;78.16;99173.19;5599952;25;20428;-82
2024/04/09 02:42:43;;;;;;;5.85;2.63;;;;;;;7.09;78.68;99152.06;5600032;25;20432;-82
2024/04/09 02:45:09;;;;;;;8.55;2.15;;;;;;;7.23;78.57;99162.94;5564111;25;20344;-81
2024/04/09 02:47:35;;;;;;;5.20;2.30;;;;;;;6.89;78.35;99104.31;5580909;25;19996;-82
2024/04/09 02:50:01;;;;;;;4.90;1.98;;;;;;;7.28;78.13;99170.00;5542664;25;20001;-80
2024/04/09 02:52:27;;;;;;;5.43;2.70;;;;;;;7.42;77.99;99177.34;5549679;25;20014;-82
2024/04/09 02:54:52;;;;;;;3.15;1.70;;;;;;;7.06;77.99;99125.38;5566971;25;20004;-84
2024/04/09 02:57:17;;;;;;;4.60;2.30;;;;;;;7.19;77.57;99133.94;5548683;25;20343;-80
2024/04/09 02:59:43;;;;;;;2.42;2.10;;;;;;;7.43;78.54;99149.47;5569835;25;20004;-81
2024/04/09 03:02:08;;;;;;;4.05;1.88;;;;;;;7.55;77.37;99161.94;5570542;25;20340;-80
2024/04/09 03:04:35;;;;;;;3.38;1.80;;;;;;;7.55;76.26;99161.94;5600442;25;19996;-81
2024/04/09 03:07:00;;;;;;;3.58;1.60;;;;;;;7.43;76.69;99170.69;5604077;25;20032;-80
2024/04/09 03:09:26;;;;;;;4.30;2.20;;;;;;;7.30;76.47;99138.19;5569704;25;20000;-84
2024/04/09 03:11:51;;;;;;;4.35;1.77;;;;;;;7.18;76.35;99119.41;5570200;25;20444;-81
2024/04/09 03:14:17;;;;;;;7.20;1.58;;;;;;;7.42;76.61;99163.63;5543919;25;20009;-82
2024/04/09 03:16:42;;;;;;;4.65;1.60;;;;;;;7.33;76.75;99155.84;5569834;25;20011;-80
2024/04/09 03:19:07;;;;;;;2.53;1.33;;;;;;;7.29;77.67;99155.84;5544215;25;20433;-82
2024/04/09 03:21:34;;;;;;;5.78;1.77;;;;;;;7.02;77.11;99088.13;5603217;25;19996;-80
2024/04/09 03:23:59;;;;;;;2.53;1.60;;;;;;;7.44;77.33;99155.75;5569144;25;20070;-80
2024/04/09 03:26:25;;;;;;;3.35;1.58;;;;;;;7.25;76.69;99122.13;5603531;25;20464;-82
2024/04/09 03:28:50;;;;;;;5.50;1.45;;;;;;;7.45;76.79;99160.06;5569871;25;19999;-80
2024/04/09 03:31:15;;;;;;;3.88;1.40;;;;;;;7.28;77.46;99151.56;5532261;25;19997;-81
2024/04/09 03:33:41;;;;;;;1.70;1.58;;;;;;;7.20;77.95;99135.50;5589257;25;20413;-83
2024/04/09 03:36:08;;;;;;;3.47;1.38;;;;;;;7.35;77.51;99159.72;5570070;25;20000;-83
2024/04/09 03:38:33;;;;;;;2.63;1.40;;;;;;;7.12;77.62;99139.47;5569284;25;20007;-81
2024/04/09 03:41:05;;;;;;;5.25;1.67;;;;;;;7.43;78.25;99193.47;5603440;25;20007;-80
2024/04/09 03:43:30;;;;;;;1.42;1.25;;;;;;;7.36;77.31;99169.53;5545108;25;20001;-83
2024/04/09 03:46:09;;;;;;;1.60;1.30;;;;;;;7.60;77.00;99187.03;5569590;25;20000;-83
2024/04/09 03:48:40;;;;;;;2.70;1.35;;;;;;;7.48;76.97;99184.78;5569364;25;20007;-81
2024/04/09 03:51:06;;;;;;;3.08;1.83;;;;;;;7.22;76.25;99128.44;5569525;25;19996;-81
2024/04/09 03:53:32;;;;;;;1.95;1.20;;;;;;;7.34;76.34;99154.66;5544554;25;19999;-80
2024/04/09 03:56:02;;;;;;;2.42;1.45;;;;;;;7.40;75.92;99155.00;5582119;25;20465;-81
2024/04/09 03:58:30;;;;;;;3.13;1.38;;;;;;;7.58;75.97;99192.19;5564636;25;20044;-79
2024/04/09 04:00:55;;;;;;;2.73;1.43;;;;;;;7.65;76.17;99210.59;5602297;25;20066;-81
2024/04/09 04:03:20;;;;;;;2.85;1.42;;;;;;;7.59;75.81;99179.22;5568440;25;20848;-80
2024/04/09 04:05:50;;;;;;;3.25;1.25;;;;;;;7.66;75.42;99195.66;5568342;25;19996;-81
2024/04/09 04:08:15;;;;;;;1.67;1.33;;;;;;;7.47;75.01;99153.00;5569557;25;20007;-83
2024/04/09 04:10:41;;;;;;;5.70;1.40;;;;;;;7.69;75.18;99189.34;5570167;25;20340;-80
2024/04/09 04:13:08;;;;;;;2.08;1.60;;;;;;;7.62;75.33;99184.69;5560158;25;20448;-82
2024/04/09 04:15:34;;;;;;;2.13;1.50;;;;;;;7.84;75.21;99207.28;5554100;25;20032;-80
2024/04/09 04:17:59;;;;;;;2.90;1.80;;;;;;;7.81;74.78;99191.59;5569028;25;20440;-81
2024/04/09 04:20:25;;;;;;;4.03;2.50;;;;;;;7.70;74.57;99164.19;5569427;25;20008;-81
2024/04/09 04:22:51;;;;;;;6.95;2.58;;;;;;;7.91;74.07;99184.44;5533936;25;20000;-81
2024/04/09 04:25:16;;;;;;;5.90;2.50;;;;;;;8.15;72.84;99208.97;5531771;25;20001;-80
2024/04/09 04:27:42;;;;;;;;;;;;;;;8.34;72.38;99220.63;5567104;25;20008;-80
2024/04/09 04:30:07;;;;;;;;;;;;;;;8.35;73.45;99225.75;5570100;25;20346;-81
2024/04/09 04:32:33;;;;;;;;;;;;;;;8.38;72.95;99224.16;5569565;25;19934;-81
2024/04/09 04:34:58;;;;;;;8.32;3.67;;;;;;;8.15;74.39;99210.94;5567194;25;20365;-81
2024/04/09 04:37:24;;;;;;;10.80;3.30;;;;;;;8.56;73.92;99213.69;5569133;25;20011;-82
2024/04/09 04:39:49;;;;;;;8.50;4.13;;;;;;;8.96;73.13;99204.59;5569465;25;20008;-80
2024/04/09 04:42:15;;;;;;;7.85;4.18;;;;;;;9.71;70.18;99222.81;5569181;25;20320;-80
2024/04/09 04:44:40;;;;;;;;;;;;;;;10.71;66.70;99232.97;5569855;25;20007;-84
2024/04/09 04:47:06;;;;;;;;;;;;;;;11.66;62.06;99227.38;5602239;25;20426;-82
2024/04/09 04:49:31;;;;;;;;;;;;;;;12.62;56.34;99223.00;5569719;25;20251;-82
2024/04/09 04:51:58;;;;;;;;;;;;;;;13.48;53.85;99224.91;5569280;25;19922;-83
2024/04/09 04:54:24;;;;;;;;;;;;;;;14.03;52.67;99217.22;5548673;25;19934;-84
2024/04/09 04:56:50;;;;;;;;;;;;;;;13.81;52.35;99229.00;5532411;25;20458;-83
2024/04/09 04:59:15;;;;;;;;;;;;;;;14.14;51.88;99226.75;5532201;25;19923;-85
2024/04/09 05:01:41;;;;;;;;;;;;;;;14.96;50.37;99224.69;5532595;25;20351;-84
2024/04/09 05:04:06;;;;;;;;;;;;;;;15.45;48.54;99233.19;5516563;25;20404;-85
2024/04/09 05:06:31;;;;;;;;;;;;;;;16.54;45.74;99227.19;5531857;25;19939;-84
2024/04/09 05:08:57;;;;;;;;;;;;;;;17.22;44.61;99218.63;5575466;25;19963;-84
2024/04/09 05:11:22;;;;;;;;;;;;;;;18.34;42.30;99228.41;5568457;25;19923;-84
2024/04/09 05:13:48;;;;;;;;;;;;;;;19.18;40.36;99224.47;5549659;25;19923;-82
2024/04/09 05:16:13;;;;;;;;;;;;;;;20.07;38.98;99221.09;5596059;25;19930;-83
2024/04/09 05:18:38;;;;;;;;;;;;;;;21.00;37.11;99213.56;5568690;25;19922;-84
2024/04/09 05:21:04;;;;;;;;;;;;;;;21.70;36.13;99218.84;5537928;25;19923;-85
2024/04/09 05:23:29;;;;;;;;;;;;;;;21.94;34.88;99220.00;5564612;25;19934;-85
2024/04/09 05:25:55;;;;;;;;;;;;;;;22.08;35.23;99215.53;5588743;25;19923;-82
2024/04/09 05:28:20;;;;;;;;;;;;;;;22.47;33.16;99212.94;5545239;25;19922;-83
2024/04/09 05:30:45;;;;;;;;;;;;;;;22.81;32.60;99213.06;5563527;25;19937;-83
2024/04/09 05:33:11;;;;;;;;;;;;;;;23.20;31.35;99222.41;5544429;25;19929;-80
2024/04/09 05:35:36;;;;;;;;;;;;;;;23.69;32.24;99215.25;5552176;25;19930;-81
2024/04/09 05:38:01;;;;;;;;;;;;;;;24.19;30.97;99218.03;5542284;25;19926;-81
2024/04/09 05:40:26;;;;;;;;;;;;;;;23.99;30.84;99211.91;5588841;25;19923;-84
2024/04/09 05:42:52;;;;;;;;;;;;;;;24.27;30.77;99216.22;5543463;25;19923;-83
2024/04/09 05:45:19;;;;;;;;;;;;;;;24.50;30.26;99222.53;5531269;25;20347;-85
2024/04/09 05:47:44;;;;;;;;;;;;;;;24.94;30.05;99218.00;5531778;25;19923;-82
2024/04/09 05:50:10;;;;;;;;;;;;;;;25.18;29.53;99209.63;5554455;25;20288;-82
2024/04/09 05:52:36;;;;;;;;;;;;;;;25.17;28.50;99212.97;5568858;25;19922;-85
2024/04/09 05:55:01;;;;;;;;;;;;;;;25.54;28.78;99199.06;5562328;25;19923;-84
2024/04/09 05:57:27;;;;;;;;;;;;;;;25.86;27.17;99214.22;5576057;25;19989;-85
2024/04/09 05:59:53;;;;;;;;;;;;;;;26.47;27.92;99209.22;5568348;25;19989;-86
2024/04/09 06:02:18;;;;;;;;;;;;;;;25.87;27.09;99206.50;5564282;25;19938;-83
2024/04/09 06:04:44;;;;;;;;;;;;;;;25.85;27.18;99209.88;5545185;25;20322;-82
2024/04/09 06:07:09;;;;;;;;;;;;;;;26.16;27.54;99214.19;5549663;25;19990;-84
2024/04/09 06:09:34;;;;;;;;;;;;;;;26.73;26.08;99204.53;5521934;25;19923;-82
2024/04/09 06:12:00;;;;;;;;;;;;;;;27.30;26.01;99210.97;5579864;25;19922;-83
2024/04/09 06:14:26;;;;;;;;;;;;;;;27.29;25.92;99212.28;5564036;25;20350;-83
2024/04/09 06:16:52;;;;;;;;;;;;;;;27.60;25.44;99222.13;5530865;25;19966;-83
2024/04/09 06:19:17;;;;;;;;;;;;;;;28.41;24.74;99218.84;5533510;25;19934;-81
2024/04/09 06:21:43;;;;;;;;;;;;;;;28.58;24.18;99217.22;5569431;25;19950;-81
2024/04/09 06:24:08;;;;;;;;;;;;;;;29.34;24.07;99214.56;5558123;25;20050;-81
2024/04/09 06:26:33;;;;;;;;;;;;;;;28.08;25.13;99209.66;5574124;25;19922;-80
2024/04/09 06:28:59;;;;;;;;;;;;;;;28.22;25.70;99216.88;5593563;25;19989;-83
2024/04/09 06:31:24;;;;;;;;;;;;;;;28.52;25.43;99210.09;5603776;25;19930;-81
2024/04/09 06:33:50;;;;;;;;;;;;;;;28.76;25.02;99207.03;5603317;25;20434;-80
2024/04/09 06:36:16;;;;;;;;;;;;;;;28.41;25.42;99202.56;5603594;25;19929;-83
2024/04/09 06:38:42;;;;;;;;;;;;;;;28.40;25.20;99208.78;5570012;25;19922;-80
2024/04/09 06:41:07;;;;;;;;;;;;;;;28.69;25.46;99219.06;5567742;25;19940;-83
2024/04/09 06:43:32;;;;;;;;;;;;;;;27.94;25.48;99208.88;5566033;25;20406;-81
2024/04/09 06:45:57;;;;;;;;;;;;;;;26.60;27.19;99207.25;5567216;25;19989;-80
2024/04/09 06:48:23;;;;;;;;;;;;;;;27.48;26.24;99206.56;5600392;25;19926;-80
2024/04/09 06:50:48;;;;;;;;;;;;;;;28.23;25.56;99209.91;5550553;25;19934;-81
2024/04/09 06:53:13;;;;;;;;;;;;;;;28.23;25.02;99203.44;5558050;25;19922;-81
2024/04/09 06:55:39;;;;;;;;;;;;;;;28.39;26.20;99201.59;5567437;25;19922;-80
2024/04/09 06:58:04;;;;;;;;;;;;;;;28.77;23.91;99202.13;5602335;25;19922;-80
2024/04/09 07:00:29;;;;;;;;;;;;;;;28.84;25.09;99196.53;5570166;25;20266;-80
2024/04/09 07:02:54;;;;;;;;;;;;;;;27.90;25.90;99190.63;5567950;25;20346;-80
2024/04/09 07:05:20;;;;;;;;;;;;;;;28.82;24.03;99193.47;5548033;25;19929;-81
2024/04/09 07:07:45;;;;;;;;;;;;;;;29.87;22.72;99190.16;5604167;25;19930;-83
2024/04/09 07:10:13;;;;;;;;;;;;;;;30.50;23.26;99179.38;5570110;25;20357;-80
2024/04/09 07:12:39;;;;;;;;;;;;;;;30.96;22.26;99183.19;5603791;25;19950;-81
2024/04/09 07:15:04;;;;;;;;;;;;;;;30.68;21.39;99181.19;5570024;25;20351;-81
2024/04/09 07:17:30;;;;;;;;;;;;;;;29.13;22.42;99180.34;5543334;25;19930;-81
2024/04/09 07:19:58;;;;;;;;;;;;;;;29.71;22.14;99179.22;5579644;25;20354;-78
2024/04/09 07:22:23;;;;;;;;;;;;;;;30.43;21.51;99176.50;5570511;25;19923;-81
2024/04/09 07:24:48;;;;;;;;;;;;;;;31.16;21.36;99172.25;5596214;25;19934;-82
2024/04/09 07:27:14;;;;;;;;;;;;;;;31.59;20.70;99172.13;5565265;25;20016;-83
2024/04/09 07:29:39;;;;;;;;;;;;;;;31.67;20.86;99167.16;5535222;25;19923;-83
2024/04/09 07:32:06;;;;;;;;;;;;;;;32.39;19.69;99175.28;5544027;25;19990;-82
2024/04/09 07:34:31;;;;;;;;;;;;;;;32.73;20.10;99172.69;5578950;25;19934;-84
2024/04/09 07:36:56;;;;;;;;;;;;;;;31.98;20.31;99170.00;5603518;25;19930;-83
2024/04/09 07:39:22;;;;;;;;;;;;;;;31.68;20.53;99165.84;5570818;25;19923;-83
2024/04/09 07:41:48;;;;;;;;;;;;;;;31.64;19.97;99165.47;5567018;25;20728;-83
2024/04/09 07:44:14;;;;;;;;;;;;;;;30.43;21.34;99159.38;5546984;25;19990;-82
2024/04/09 07:46:44;;;;;;;;;;;;;;;29.26;22.41;99159.59;5542911;25;19930;-83
2024/04/09 07:49:09;;;;;;;;;;;;;;;27.30;24.87;99162.72;5551373;25;19931;-82
2024/04/09 07:51:37;;;;;;;;;;;;;;;25.83;26.36;99153.03;5564759;25;19923;-82
2024/04/09 07:54:02;;;;;;;;;;;;;;;24.65;27.90;99160.81;5531405;25;19929;-83
2024/04/09 07:56:28;;;;;;;;;;;;;;;23.63;30.87;99157.31;5593054;25;20254;-84
2024/04/09 07:58:53;;;;;;;;;;;;;;;22.83;31.01;99145.72;5566072;25;19929;-82
2024/04/09 08:01:18;;;;;;;;;;;;;;;22.38;34.43;99154.00;5565861;25;19981;-82
2024/04/09 08:03:43;;;;;;;;;;;;;;;22.10;32.06;99156.72;5565564;25;20254;-84
2024/04/09 08:06:10;;;;;;;;;;;;;;;21.59;33.90;99152.00;5597685;25;19929;-82
2024/04/09 08:08:35;;;;;;;;;;;;;;;21.38;32.76;99151.38;5576366;25;20011;-82
2024/04/09 08:11:07;;;;;;;;;;;;;;;21.42;33.92;99151.13;5566058;25;19934;-84
2024/04/09 08:13:32;;;;;;;;;;;;;;;21.22;34.49;99151.97;5600673;25;20275;-83
2024/04/09 08:15:57;;;;;;;;;;;;;;;21.01;34.06;99145.66;5569560;25;19937;-82
2024/04/09 08:18:24;;;;;;;;;;;;;;;20.99;34.31;99148.19;5588142;25;19923;-85
2024/04/09 08:20:49;;;;;;;;;;;;;;;20.82;35.94;99143.66;5560376;25;20271;-83
2024/04/09 08:23:16;;;;;;;;;;;;;;;20.86;35.80;99141.41;5569258;25;19922;-83
2024/04/09 08:25:42;;;;;;;;;;;;;;;20.85;35.45;99145.50;5544234;25;19931;-82
2024/04/09 08:28:07;;;;;;;;;;;;;;;20.78;34.52;99135.47;5603203;25;19922;-82
2024/04/09 08:30:33;;;;;;;;;;;;;;;20.82;34.93;99135.25;5602908;25;20031;-82
2024/04/09 08:32:58;;;;;;;;;;;;;;;20.83;33.95;99128.38;5602515;25;19985;-81
2024/04/09 08:35:23;;;;;;;;;;;;;;;21.16;35.34;99123.06;5569312;25;19929;-83
2024/04/09 08:37:49;;;;;;;;;;;;;;;21.12;34.96;99120.47;5569472;25;19981;-82
2024/04/09 08:40:18;;;;;;;;;;;;;;;21.00;34.93;99116.00;5603268;25;20366;-84
2024/04/09 08:42:44;;;;;;;;;;;;;;;20.96;34.65;99117.50;5603464;25;19938;-81
2024/04/09 08:45:14;;;;;;;;;;;;;;;20.92;32.27;99120.53;5569350;25;19923;-82
2024/04/09 08:47:41;;;;;;;;;;;;;;;20.83;33.53;99115.09;5569158;25;19999;-81
2024/04/09 08:50:07;;;;;;;;;;;;;;;20.94;34.65;99112.38;5567863;25;19928;-83
2024/04/09 08:52:33;;;;;;;;;;;;;;;20.99;34.10;99114.47;5569024;25;19934;-82
2024/04/09 08:54:58;;;;;;;;;;;;;;;20.87;33.74;99109.25;5561855;25;20359;-82
2024/04/09 08:57:24;;;;;;;;;;;;;;;20.75;32.77;99102.75;5583130;25;19934;-83
2024/04/09 08:59:50;;;;;;;;;;;;;;;20.71;33.61;99102.22;5568716;25;19931;-83
2024/04/09 09:02:16;;;;;;;;;;;;;;;20.89;32.73;99101.09;5602283;25;19930;-83
2024/04/09 09:04:42;;;;;;;;;;;;;;;20.94;33.12;99089.91;5538408;25;20313;-83
2024/04/09 09:07:17;;;;;;;;;;;;;;;21.12;33.25;99089.56;5582046;25;19933;-82
2024/04/09 09:09:43;;;;;;;;;;;;;;;21.14;33.96;99083.44;5538177;25;19922;-85
2024/04/09 09:12:09;;;;;;;;;;;;;;;20.97;35.18;99086.13;5583224;25;19934;-84
2024/04/09 09:14:34;;;;;;;;;;;;;;;20.96;35.20;99083.81;5595966;25;20418;-82
2024/04/09 09:17:04;;;;;;;;;;;;;;;20.80;34.38;99081.59;5603320;25;19922;-83
2024/04/09 09:19:33;;;;;;;;;;;;;;;20.62;35.46;99077.09;5561927;25;19929;-83
2024/04/09 09:21:59;;;;;;;;;;;;;;;20.81;35.38;99069.88;5532416;25;20351;-84
2024/04/09 09:24:24;;;;;;;;;;;;;;;20.80;34.19;99073.16;5539813;25;19989;-85
2024/04/09 09:26:59;;;;;;;;;;;;;;;20.84;34.35;99068.91;5549067;25;19923;-84
2024/04/09 09:29:24;;;;;;;;;;;;;;;21.06;34.42;99069.06;5574953;25;19989;-83
2024/04/09 09:31:53;;;;;;;;;;;;;;;20.95;33.90;99065.41;5569005;25;19923;-85
2024/04/09 09:34:23;;;;;;;;;;;;;;;20.93;34.30;99063.09;5558256;25;19934;-84
2024/04/09 09:36:49;;;;;;;;;;;;;;;20.78;35.36;99062.47;5555861;25;19922;-83
2024/04/09 09:39:15;;;;;;;;;;;;;;;20.79;34.22;99064.00;5568682;25;20277;-81
2024/04/09 09:41:42;;;;;;;;;;;;;;;20.95;33.83;99046.50;5543035;25;19930;-83
2024/04/09 09:44:08;;;;;;;;;;;;;;;21.13;35.59;99051.75;5580025;25;20355;-83
2024/04/09 09:46:34;;;;;;;;;;;;;;;21.32;33.82;99035.31;5576650;25;19930;-84
2024/04/09 09:48:59;;;;;;;;;;;;;;;21.34;33.80;99040.44;5568558;25;19929;-81
2024/04/09 09:51:25;;;;;;;;;;;;;;;21.28;33.90;99031.19;5598839;25;19922;-82
2024/04/09 09:53:51;;;;;;;;;;;;;;;21.31;34.04;99036.56;5545578;25;19950;-82
2024/04/09 09:56:17;;;;;;;;;;;;;;;21.38;32.41;99026.91;5551402;25;19936;-84
2024/04/09 09:58:43;;;;;;;;;;;;;;;21.51;33.16;99027.25;5585901;25;19923;-81
2024/04/09 10:01:09;;;;;;;;;;;;;;;21.47;32.10;99026.69;5534711;25;20355;-82
2024/04/09 10:03:35;;;;;;;;;;;;;;;21.44;32.85;99016.47;5552748;25;19922;-82
2024/04/09 10:06:01;;;;;;;;;;;;;;;21.55;32.64;99015.75;5551082;25;19922;-82
2024/04/09 10:08:29;;;;;;;;;;;;;;;21.49;33.03;99013.69;5540271;25;21853;-81
2024/04/09 10:10:54;;;;;;;;;;;;;;;21.76;33.46;99015.06;5523623;25;19935;-82
2024/04/09 10:13:21;;;;;;;;;;;;;;;21.83;33.71;98999.75;5529941;25;19927;-83
2024/04/09 10:15:47;;;;;;;;;;;;;;;21.78;32.53;99009.72;5534833;25;19936;-81
2024/04/09 10:18:26;;;;;;;;;;;;;;;21.75;32.89;99001.53;5543028;25;20604;-81
2024/04/09 10:20:53;;;;;;;;;;;;;;;21.67;33.80;99004.03;5519775;25;19927;-81
2024/04/09 10:23:19;;;;;;;;;;;;;;;21.57;33.65;98994.28;5533909;25;19935;-80
2024/04/09 10:25:44;;;;;;;;;;;;;;;21.67;33.44;98995.59;5544415;25;20312;-82
2024/04/09 10:28:10;;;;;;;;;;;;;;;21.60;32.87;98993.28;5540704;25;19946;-82
2024/04/09 10:30:40;;;;;;;;;;;;;;;21.70;34.78;98994.56;5549781;25;19995;-81
2024/04/09 10:33:06;;;;;;;;;;;;;;;21.59;31.87;98979.72;5543954;25;19939;-81
2024/04/09 10:35:32;;;;;;;;;;;;;;;21.46;32.81;98977.34;5524867;25;19935;-81
2024/04/09 10:37:58;;;;;;;;;;;;;;;21.56;32.25;98972.28;5543108;25;20355;-81
2024/04/09 10:40:24;;;;;;;;;;;;;;;21.72;34.31;98963.16;5544033;25;19946;-83
2024/04/09 10:42:50;;;;;;;;;;;;;;;21.68;32.41;98971.84;5551050;25;20366;-84
2024/04/09 10:45:16;;;;;;;;;;;;;;;21.56;32.62;98967.44;5543040;25;20272;-84
2024/04/09 10:47:46;;;;;;;;;;;;;;;21.59;32.79;98955.16;5531774;25;19935;-82
2024/04/09 10:50:14;;;;;;;;;;;;;;;21.82;33.40;98965.22;5527153;25;19928;-80
2024/04/09 10:52:40;;;;;;;;;;;;;;;21.79;32.70;98969.06;5526962;25;20252;-81
2024/04/09 10:55:12;;;;;;;;;;;;;;;21.81;32.13;98963.69;5530263;25;20359;-82
2024/04/09 10:57:38;;;;;;;;;;;;;;;21.82;32.04;98961.66;5530627;25;19927;-82
2024/04/09 11:00:08;;;;;;;;;;;;;;;21.72;32.32;98961.09;5521887;25;19928;-81
2024/04/09 11:02:34;;;;;;;;;;;;;;;21.85;32.60;98957.81;5523323;25;20256;-81
2024/04/09 11:04:59;;;;;;;;;;;;;;;21.91;31.30;98962.19;5546575;25;20358;-82
2024/04/09 11:07:25;;;;;;;;;;;;;;;21.90;32.32;98957.84;5512144;25;20412;-84
2024/04/09 11:09:52;;;;;;;;;;;;;;;21.98;33.26;98952.50;5571988;25;19930;-82
2024/04/09 11:12:17;;;;;;;;;;;;;;;22.03;32.21;98956.63;5550181;25;19927;-82
2024/04/09 11:14:43;;;;;;;;;;;;;;;22.03;31.93;98954.56;5563243;25;19994;-85
2024/04/09 11:17:15;;;;;;;;;;;;;;;22.03;32.77;98946.13;5547100;25;20339;-80
2024/04/09 11:19:40;;;;;;;;;;;;;;;21.96;31.40;98949.44;5550166;25;19927;-82
2024/04/09 11:22:06;;;;;;;;;;;;;;;22.00;30.86;98943.56;5540675;25;20350;-84
2024/04/09 11:24:31;;;;;;;;;;;;;;;21.97;32.01;98931.28;5539904;25;19927;-82
2024/04/09 11:26:56;;;;;;;;;;;;;;;21.98;30.12;98929.25;5539672;25;20303;-81
2024/04/09 11:29:22;;;;;;;;;;;;;;;21.97;32.24;98924.88;5539031;25;20247;-81
2024/04/09 11:31:49;;;;;;;;;;;;;;;21.94;30.57;98929.47;5549035;25;19930;-82
2024/04/09 11:34:28;;;;;;;;;;;;;;;22.03;32.46;98920.03;5576750;25;19951;-83
2024/04/09 11:36:54;;;;;;;;;;;;;;;22.06;32.09;98919.03;5580227;25;20330;-82
2024/04/09 11:39:22;;;;;;;;;;;;;;;22.11;33.12;98907.78;5531375;25;19960;-82
2024/04/09 11:41:47;;;;;;;;;;;;;;;22.11;32.67;98899.34;5530725;25;19974;-79
2024/04/09 11:44:18;;;;;;;;;;;;;;;22.12;31.40;98902.91;5567401;25;19934;-78
2024/04/09 11:46:43;;;;;;;;;;;;;;;22.19;32.02;98902.38;5569166;25;19933;-82
2024/04/09 11:49:08;;;;;;;;;;;;;;;22.20;30.83;98892.66;5569866;25;19934;-81
2024/04/09 11:51:34;;;;;;;;;;;;;;;22.30;31.03;98893.97;5567429;25;19927;-82
2024/04/09 11:53:59;;;;;;;;;;;;;;;22.28;31.07;98890.88;5555860;25;19927;-81
2024/04/09 11:56:24;;;;;;;;;;;;;;;22.29;31.53;98890.38;5558103;25;19938;-82
2024/04/09 11:58:49;;;;;;;;;;;;;;;22.36;30.20;98886.28;5570022;25;19993;-81
2024/04/09 12:01:15;;;;;;;;;;;;;;;22.29;31.25;98881.16;5603446;25;20250;-80
2024/04/09 12:03:40;;;;;;;;;;;;;;;22.30;31.48;98872.19;5550264;25;19927;-80
2024/04/09 12:06:06;;;;;;;;;;;;;;;22.23;30.01;98872.72;5514683;25;19927;-79
2024/04/09 12:08:31;;;;;;;;;;;;;;;22.34;31.05;98871.94;5590317;25;19927;-81
2024/04/09 12:10:57;;;;;;;;;;;;;;;22.45;30.51;98866.31;5600440;25;20410;-81
2024/04/09 12:13:22;;;;;;;;;;;;;;;22.44;28.76;98864.00;5567290;25;19964;-80
2024/04/09 12:15:48;;;;;;;;;;;;;;;22.54;29.18;98860.41;5565624;25;19926;-80